createdAt,value
2018-12-14T00:00:40.137Z,33.53
2018-12-14T00:03:11.356Z,34.07
2018-12-14T00:05:38.756Z,33.63
2018-12-14T00:08:06.160Z,33.93
2018-12-14T00:10:37.177Z,29.57
2018-12-14T00:13:04.563Z,31.90
2018-12-14T00:15:37.494Z,37.00
2018-12-14T00:18:04.900Z,30.97
2018-12-14T00:20:32.295Z,33.73
2018-12-14T00:22:59.649Z,31.73
2018-12-14T00:25:27.046Z,32.50
2018-12-14T00:27:55.454Z,32.67
2018-12-14T00:30:22.880Z,31.37
2018-12-14T00:32:50.249Z,33.40
2018-12-14T00:35:18.008Z,34.60
2018-12-14T00:37:46.405Z,33.30
2018-12-14T00:40:13.811Z,34.03
2018-12-14T00:42:44.475Z,30.83
2018-12-14T00:45:13.270Z,36.33
2018-12-14T00:47:48.470Z,39.07
2018-12-14T00:50:15.865Z,38.63
2018-12-14T00:52:43.241Z,34.63
2018-12-14T00:55:10.675Z,34.63
2018-12-14T00:57:47.497Z,39.83
2018-12-14T01:00:15.039Z,34.60
2018-12-14T01:02:42.391Z,36.87
2018-12-14T01:05:09.731Z,35.93
2018-12-14T01:10:37.361Z,38.67
2018-12-14T01:13:05.071Z,33.50
2018-12-14T01:15:32.421Z,31.73
2018-12-14T01:20:51.975Z,34.77
2018-12-14T01:23:19.360Z,38.83
2018-12-14T01:25:46.765Z,36.20
2018-12-14T01:28:14.180Z,31.50
2018-12-14T01:30:47.221Z,32.60
2018-12-14T01:33:14.592Z,36.90
2018-12-14T01:35:45.450Z,34.90
2018-12-14T01:38:12.804Z,37.37
2018-12-14T01:42:05.079Z,32.47
2018-12-14T01:44:32.658Z,33.67
2018-12-14T01:50:15.441Z,37.93
2018-12-14T01:52:42.856Z,31.13
2018-12-14T01:55:10.291Z,32.43
2018-12-14T01:57:40.856Z,35.23
2018-12-14T02:00:08.341Z,34.33
2018-12-14T02:02:35.707Z,30.93
2018-12-14T02:05:03.677Z,37.23
2018-12-14T02:07:38.582Z,36.47
2018-12-14T02:10:06.091Z,35.47
2018-12-14T02:12:33.436Z,33.93
2018-12-14T02:15:00.806Z,39.00
2018-12-14T02:20:23.264Z,38.80
2018-12-14T02:22:56.410Z,37.47
2018-12-14T02:25:25.797Z,37.17
2018-12-14T02:27:57.823Z,38.53
2018-12-14T02:30:38.572Z,35.67
2018-12-14T02:33:05.910Z,32.73
2018-12-14T02:35:33.306Z,35.57
2018-12-14T02:38:01.941Z,37.10
2018-12-14T02:40:32.954Z,36.20
2018-12-14T02:43:00.472Z,35.00
2018-12-14T02:45:28.016Z,37.70
2018-12-14T02:48:01.791Z,29.40
2018-12-14T02:50:29.221Z,35.07
2018-12-14T02:53:00.198Z,35.03
2018-12-14T02:55:29.279Z,36.40
2018-12-14T02:58:10.152Z,34.80
2018-12-14T03:00:37.550Z,33.57
2018-12-14T03:03:04.943Z,35.70
2018-12-14T03:05:32.318Z,32.47
2018-12-14T03:08:00.708Z,32.93
2018-12-14T03:10:28.183Z,36.10
2018-12-14T03:12:55.587Z,32.30
2018-12-14T03:15:22.913Z,34.00
2018-12-14T03:17:53.709Z,30.93
2018-12-14T03:20:21.055Z,30.37
2018-12-14T03:22:53.977Z,31.13
2018-12-14T03:25:21.335Z,36.17
2018-12-14T03:27:48.747Z,34.73
2018-12-14T03:30:16.162Z,32.17
2018-12-14T03:32:43.551Z,33.33
2018-12-14T03:35:10.934Z,33.30
2018-12-14T03:37:41.576Z,36.73
2018-12-14T03:40:08.959Z,33.60
2018-12-14T03:42:36.411Z,33.13
2018-12-14T03:45:07.469Z,31.40
2018-12-14T03:47:40.660Z,33.80
2018-12-14T03:50:08.116Z,28.67
2018-12-14T03:52:39.127Z,33.27
2018-12-14T03:55:06.509Z,32.00
2018-12-14T03:57:34.978Z,29.33
2018-12-14T04:00:05.238Z,33.30
2018-12-14T04:02:32.733Z,33.97
2018-12-14T04:05:00.139Z,31.83
2018-12-14T04:07:27.518Z,30.77
2018-12-14T04:09:54.867Z,34.03
2018-12-14T04:12:22.239Z,36.20
2018-12-14T04:14:49.698Z,31.60
2018-12-14T04:17:17.049Z,32.83
2018-12-14T04:19:44.449Z,29.63
2018-12-14T04:22:11.809Z,30.70
2018-12-14T04:24:39.212Z,29.00
2018-12-14T04:27:06.584Z,37.20
2018-12-14T04:29:33.950Z,28.20
2018-12-14T04:32:01.289Z,29.53
2018-12-14T04:34:28.805Z,34.83
2018-12-14T04:36:56.228Z,30.83
2018-12-14T04:39:23.582Z,32.80
2018-12-14T04:41:51.018Z,29.67
2018-12-14T04:44:18.382Z,30.47
2018-12-14T04:49:54.537Z,29.83
2018-12-14T04:52:21.908Z,32.20
2018-12-14T04:54:49.254Z,29.27
2018-12-14T04:57:18.656Z,32.53
2018-12-14T04:59:49.314Z,29.83
2018-12-14T05:02:16.648Z,31.03
2018-12-14T05:04:44.062Z,35.50
2018-12-14T05:07:12.461Z,30.90
2018-12-14T05:09:39.855Z,28.77
2018-12-14T05:12:07.390Z,30.37
2018-12-14T05:14:36.077Z,30.70
2018-12-14T05:17:07.218Z,31.70
2018-12-14T05:19:34.586Z,31.33
2018-12-14T05:22:02.228Z,34.13
2018-12-14T05:24:29.618Z,30.00
2018-12-14T05:29:55.752Z,35.43
2018-12-14T05:32:27.063Z,33.03
2018-12-14T05:34:58.232Z,31.83
2018-12-14T05:37:44.443Z,32.83
2018-12-14T05:40:11.829Z,33.47
2018-12-14T05:42:42.918Z,34.37
2018-12-14T05:45:10.298Z,36.13
2018-12-14T05:50:53.519Z,31.17
2018-12-14T05:53:20.907Z,34.43
2018-12-14T05:55:52.087Z,38.03
2018-12-14T05:58:19.475Z,32.23
2018-12-14T06:00:46.873Z,38.30
2018-12-14T06:03:17.656Z,34.57
2018-12-14T06:05:46.603Z,33.37
2018-12-14T06:08:13.992Z,36.43
2018-12-14T06:10:41.359Z,33.23
2018-12-14T06:13:09.241Z,36.90
2018-12-14T06:15:36.835Z,37.03
2018-12-14T06:18:09.871Z,36.83
2018-12-14T06:20:37.213Z,37.23
2018-12-14T06:23:10.050Z,36.63
2018-12-14T06:25:37.391Z,37.60
2018-12-14T06:28:04.804Z,32.57
2018-12-14T06:30:32.184Z,31.57
2018-12-14T06:32:59.581Z,28.33
2018-12-14T06:35:27.002Z,33.97
2018-12-14T06:37:54.363Z,29.07
2018-12-14T06:40:21.812Z,30.80
2018-12-14T06:42:49.163Z,29.87
2018-12-14T06:45:16.727Z,31.10
2018-12-14T06:47:44.104Z,32.57
2018-12-14T06:50:11.535Z,33.70
2018-12-14T06:52:38.979Z,26.97
2018-12-14T06:55:06.524Z,27.97
2018-12-14T06:57:38.272Z,28.03
2018-12-14T07:00:06.957Z,28.57
2018-12-14T07:02:34.474Z,28.33
2018-12-14T07:05:01.879Z,31.97
2018-12-14T07:07:36.102Z,31.37
2018-12-14T07:10:03.669Z,26.70
2018-12-14T07:12:31.018Z,32.57
2018-12-14T07:14:58.427Z,27.77
2018-12-14T07:17:31.377Z,27.57
2018-12-14T07:19:58.749Z,33.70
2018-12-14T07:22:26.183Z,33.97
2018-12-14T07:24:53.609Z,34.90
2018-12-14T07:27:25.722Z,34.50
2018-12-14T07:29:53.125Z,30.57
2018-12-14T07:32:20.562Z,27.40
2018-12-14T07:34:47.920Z,32.23
2018-12-14T07:37:19.664Z,31.87
2018-12-14T07:39:47.029Z,34.80
2018-12-14T07:42:14.480Z,35.50
2018-12-14T07:44:45.675Z,30.97
2018-12-14T07:47:16.535Z,34.17
2018-12-14T07:49:47.399Z,32.00
2018-12-14T07:52:14.880Z,31.40
2018-12-14T07:54:42.353Z,30.37
2018-12-14T07:57:11.802Z,30.43
2018-12-14T07:59:42.399Z,27.47
2018-12-14T08:02:09.799Z,28.47
2018-12-14T08:04:40.441Z,29.07
2018-12-14T08:07:13.529Z,28.83
2018-12-14T08:09:40.942Z,29.13
2018-12-14T08:12:08.299Z,31.40
2018-12-14T08:14:35.727Z,31.30
2018-12-14T08:17:04.150Z,32.10
2018-12-14T08:19:34.743Z,34.97
2018-12-14T08:22:02.136Z,29.67
2018-12-14T08:24:32.701Z,31.17
2018-12-14T08:27:00.084Z,30.80
2018-12-14T08:29:27.439Z,31.10
2018-12-14T08:31:54.805Z,30.27
2018-12-14T08:34:25.795Z,34.73
2018-12-14T08:36:53.125Z,29.77
2018-12-14T08:39:25.990Z,29.50
2018-12-14T08:41:53.399Z,29.50
2018-12-14T08:44:20.775Z,29.37
2018-12-14T08:46:49.188Z,33.57
2018-12-14T08:49:20.094Z,31.17
2018-12-14T08:51:49.150Z,32.83
2018-12-14T08:54:16.561Z,27.90
2018-12-14T08:56:44.960Z,29.27
2018-12-14T08:59:12.393Z,30.57
2018-12-14T09:01:39.725Z,30.03
2018-12-14T09:04:07.160Z,27.73
2018-12-14T09:06:34.525Z,30.83
2018-12-14T09:09:01.947Z,29.77
2018-12-14T09:11:29.313Z,29.63
2018-12-14T09:14:02.302Z,30.97
2018-12-14T09:16:33.891Z,27.50
2018-12-14T09:19:01.577Z,28.73
2018-12-14T09:21:30.775Z,28.30
2018-12-14T09:23:58.146Z,27.57
2018-12-14T09:26:31.226Z,27.30
2018-12-14T09:28:58.861Z,30.07
2018-12-14T09:31:30.353Z,32.17
2018-12-14T09:34:01.190Z,30.20
2018-12-14T09:36:28.602Z,31.97
2018-12-14T09:38:55.994Z,35.20
2018-12-14T09:41:23.395Z,35.53
2018-12-14T09:43:54.310Z,31.63
2018-12-14T09:46:20.262Z,31.20
2018-12-14T09:48:47.704Z,35.93
2018-12-14T09:51:20.590Z,33.10
2018-12-14T09:53:53.628Z,32.97
2018-12-14T09:56:24.150Z,34.37
2018-12-14T09:58:55.363Z,28.03
2018-12-14T10:01:22.757Z,35.37
2018-12-14T10:03:50.396Z,30.57
2018-12-14T10:06:17.816Z,31.43
2018-12-14T10:08:48.944Z,30.43
2018-12-14T10:11:16.753Z,33.27
2018-12-14T10:13:48.104Z,36.83
2018-12-14T10:16:17.054Z,32.03
2018-12-14T10:18:46.250Z,31.37
2018-12-14T10:21:13.634Z,35.87
2018-12-14T10:23:41.052Z,37.07
2018-12-14T10:26:08.430Z,38.03
2018-12-14T10:28:35.825Z,30.03
2018-12-14T10:31:06.545Z,34.87
2018-12-14T10:33:33.944Z,35.50
2018-12-14T10:36:03.152Z,37.87
2018-12-14T10:38:34.105Z,35.00
2018-12-14T10:41:01.466Z,31.30
2018-12-14T10:43:28.879Z,33.03
2018-12-14T10:45:59.890Z,33.90
2018-12-14T10:48:31.074Z,31.70
2018-12-14T10:50:58.464Z,32.87
2018-12-14T10:53:31.463Z,34.10
2018-12-14T10:56:04.440Z,38.33
2018-12-14T10:58:33.919Z,33.13
2018-12-14T11:01:14.244Z,34.23
2018-12-14T11:03:40.010Z,33.33
2018-12-14T11:06:25.908Z,31.83
2018-12-14T11:08:53.331Z,26.67
2018-12-14T11:11:26.343Z,29.13
2018-12-14T11:13:56.844Z,31.63
2018-12-14T11:16:26.246Z,27.93
2018-12-14T11:18:53.634Z,30.93
2018-12-14T11:21:21.054Z,31.90
2018-12-14T11:23:48.460Z,33.83
2018-12-14T11:26:38.305Z,28.93
2018-12-14T11:29:05.688Z,33.63
2018-12-14T11:31:36.911Z,35.83
2018-12-14T11:34:04.329Z,33.87
2018-12-14T11:36:34.909Z,33.87
2018-12-14T11:39:02.462Z,33.40
2018-12-14T11:41:33.909Z,35.07
2018-12-14T11:44:04.784Z,37.30
2018-12-14T11:46:35.775Z,31.27
2018-12-14T11:49:04.934Z,33.60
2018-12-14T11:51:32.390Z,31.23
2018-12-14T11:54:03.317Z,32.80
2018-12-14T11:56:36.750Z,32.20
2018-12-14T11:59:07.415Z,29.87
2018-12-14T12:01:34.834Z,31.20
2018-12-14T12:04:05.630Z,31.40
2018-12-14T12:06:36.659Z,33.10
2018-12-14T12:09:10.424Z,28.57
2018-12-14T12:11:41.351Z,25.30
2018-12-14T12:14:08.777Z,25.93
2018-12-14T12:16:37.719Z,30.27
2018-12-14T12:19:08.604Z,27.67
2018-12-14T12:21:36.260Z,28.17
2018-12-14T12:24:09.150Z,27.57
2018-12-14T12:26:39.719Z,28.50
2018-12-14T12:29:10.784Z,28.70
2018-12-14T12:31:44.175Z,28.30
2018-12-14T12:34:11.639Z,31.03
2018-12-14T12:36:44.697Z,26.97
2018-12-14T12:39:15.453Z,28.50
2018-12-14T12:41:46.402Z,29.10
2018-12-14T12:44:17.420Z,31.83
2018-12-14T12:46:48.223Z,32.37
2018-12-14T12:49:15.659Z,27.30
2018-12-14T12:51:46.794Z,25.70
2018-12-14T12:54:14.231Z,26.97
2018-12-14T12:56:41.739Z,27.33
2018-12-14T12:59:12.546Z,26.33
2018-12-14T13:01:39.942Z,24.10
2018-12-14T13:04:11.224Z,25.77
2018-12-14T13:06:42.316Z,24.73
2018-12-14T13:09:09.729Z,26.77
2018-12-14T13:11:42.844Z,27.80
2018-12-14T13:14:13.592Z,31.77
2018-12-14T13:16:49.678Z,30.27
2018-12-14T13:19:20.301Z,33.80
2018-12-14T13:21:53.550Z,28.87
2018-12-14T13:24:20.896Z,32.97
2018-12-14T13:26:48.295Z,35.47
2018-12-14T13:29:15.711Z,32.33
2018-12-14T13:31:43.134Z,31.07
2018-12-14T13:34:10.539Z,30.67
2018-12-14T13:36:41.295Z,31.90
2018-12-14T13:39:08.703Z,30.33
2018-12-14T13:41:36.155Z,31.93
2018-12-14T13:44:06.878Z,29.10
2018-12-14T13:46:37.748Z,30.30
2018-12-14T13:49:05.169Z,30.07
2018-12-14T13:51:36.341Z,27.43
2018-12-14T13:54:07.222Z,30.77
2018-12-14T13:56:36.624Z,31.30
2018-12-14T13:59:07.971Z,33.07
2018-12-14T14:01:37.119Z,34.77
2018-12-14T14:04:07.991Z,42.50
2018-12-14T14:06:35.346Z,30.87
2018-12-14T14:09:06.119Z,36.47
2018-12-14T14:11:39.524Z,40.17
2018-12-14T14:14:10.010Z,39.20
2018-12-14T14:16:40.813Z,37.60
2018-12-14T14:19:14.195Z,39.07
2018-12-14T14:21:45.536Z,37.23
2018-12-14T14:24:16.619Z,35.07
2018-12-14T14:26:47.462Z,32.47
2018-12-14T14:29:16.588Z,32.63
2018-12-14T14:31:43.971Z,32.67
2018-12-14T14:34:14.708Z,27.37
2018-12-14T14:36:45.775Z,29.43
2018-12-14T14:39:13.186Z,28.47
2018-12-14T14:41:40.596Z,29.67
2018-12-14T14:44:12.104Z,26.07
2018-12-14T14:46:42.951Z,27.47
2018-12-14T14:49:14.266Z,27.67
2018-12-14T14:51:45.674Z,28.20
2018-12-14T14:54:14.701Z,31.00
2018-12-14T14:56:42.100Z,32.10
2018-12-14T14:59:12.821Z,35.47
2018-12-14T15:01:43.721Z,36.23
2018-12-14T15:04:15.878Z,36.10
2018-12-14T15:06:46.802Z,32.97
2018-12-14T15:09:18.834Z,34.37
2018-12-14T15:11:49.739Z,34.47
2018-12-14T15:14:20.825Z,35.10
2018-12-14T15:16:51.754Z,33.53
2018-12-14T15:19:22.846Z,39.53
2018-12-14T15:21:54.096Z,35.17
2018-12-14T15:24:24.966Z,39.20
2018-12-14T15:26:52.391Z,40.17
2018-12-14T15:29:23.334Z,34.70
2018-12-14T15:31:54.420Z,33.20
2018-12-14T15:34:21.906Z,38.97
2018-12-14T15:36:49.310Z,35.50
2018-12-14T15:39:20.015Z,35.87
2018-12-14T15:41:47.600Z,33.67
2018-12-14T15:44:20.423Z,32.07
2018-12-14T15:46:51.764Z,36.80
2018-12-14T15:49:23.000Z,33.37
2018-12-14T15:51:50.384Z,31.20
2018-12-14T15:54:19.686Z,28.37
2018-12-14T15:56:50.516Z,28.57
2018-12-14T15:59:21.078Z,33.97
2018-12-14T16:01:48.679Z,32.37
2018-12-14T16:04:16.113Z,30.97
2018-12-14T16:06:43.482Z,28.67
2018-12-14T16:09:14.789Z,29.77
2018-12-14T16:11:45.865Z,30.03
2018-12-14T16:14:19.392Z,32.57
2018-12-14T16:16:46.765Z,32.43
2018-12-14T16:19:17.822Z,30.33
2018-12-14T16:21:45.366Z,28.87
2018-12-14T16:24:16.375Z,32.33
2018-12-14T16:26:45.356Z,35.17
2018-12-14T16:29:12.775Z,35.00
2018-12-14T16:31:40.161Z,35.23
2018-12-14T16:34:10.708Z,40.03
2018-12-14T16:36:41.710Z,36.57
2018-12-14T16:39:15.391Z,36.67
2018-12-14T16:41:44.844Z,42.03
2018-12-14T16:44:15.704Z,35.47
2018-12-14T16:46:46.629Z,38.27
2018-12-14T16:49:14.181Z,38.37
2018-12-14T16:51:43.555Z,33.87
2018-12-14T16:54:14.682Z,38.17
2018-12-14T16:56:45.747Z,33.17
2018-12-14T16:59:13.113Z,33.40
2018-12-14T17:01:40.562Z,37.17
2018-12-14T17:04:10.022Z,34.33
2018-12-14T17:06:41.173Z,32.67
2018-12-14T17:09:10.401Z,33.03
2018-12-14T17:11:41.616Z,36.53
2018-12-14T17:14:09.031Z,33.07
2018-12-14T17:16:39.644Z,38.27
2018-12-14T17:19:10.678Z,39.40
2018-12-14T17:21:41.852Z,35.23
2018-12-14T17:24:09.251Z,35.50
2018-12-14T17:26:37.791Z,35.40
2018-12-14T17:29:06.881Z,36.37
2018-12-14T17:31:34.316Z,37.13
2018-12-14T17:35:26.203Z,37.10
2018-12-14T17:37:57.192Z,30.17
2018-12-14T17:40:27.722Z,38.60
2018-12-14T17:42:58.582Z,31.57
2018-12-14T17:45:25.937Z,37.63
2018-12-14T17:47:56.587Z,33.33
2018-12-14T17:50:23.979Z,30.27
2018-12-14T17:52:54.542Z,29.93
2018-12-14T17:55:25.688Z,30.53
2018-12-14T17:57:53.199Z,32.47
2018-12-14T18:00:23.808Z,31.00
2018-12-14T18:02:51.212Z,31.00
2018-12-14T18:05:21.802Z,28.30
2018-12-14T18:07:50.254Z,27.97
2018-12-14T18:10:17.623Z,30.47
2018-12-14T18:12:50.898Z,28.07
2018-12-14T18:15:18.289Z,30.17
2018-12-14T18:17:49.631Z,27.03
2018-12-14T18:20:23.130Z,31.07
2018-12-14T18:22:54.359Z,31.00
2018-12-14T18:25:23.249Z,25.87
2018-12-14T18:27:50.647Z,27.50
2018-12-14T18:30:23.578Z,30.97
2018-12-14T18:32:54.183Z,27.27
2018-12-14T18:35:21.722Z,31.23
2018-12-14T18:37:54.238Z,33.33
2018-12-14T18:40:21.671Z,28.63
2018-12-14T18:42:49.113Z,30.70
2018-12-14T18:45:16.524Z,30.70
2018-12-14T18:47:49.179Z,33.60
2018-12-14T18:50:20.129Z,31.17
2018-12-14T18:52:51.133Z,35.47
2018-12-14T18:55:22.415Z,29.70
2018-12-14T18:57:55.807Z,29.33
2018-12-14T19:00:23.271Z,32.47
2018-12-14T19:02:50.669Z,29.20
2018-12-14T19:05:21.358Z,34.03
2018-12-14T19:07:53.428Z,32.43
2018-12-14T19:10:20.823Z,30.20
2018-12-14T19:12:53.738Z,32.93
2018-12-14T19:15:24.570Z,31.20
2018-12-14T19:17:55.405Z,32.73
2018-12-14T19:20:29.085Z,28.97
2018-12-14T19:22:56.458Z,30.03
2018-12-14T19:25:23.877Z,32.83
2018-12-14T19:27:52.398Z,31.53
2018-12-14T19:30:19.859Z,30.73
2018-12-14T19:32:50.558Z,36.93
2018-12-14T19:35:17.962Z,35.20
2018-12-14T19:40:40.840Z,35.40
2018-12-14T19:45:41.109Z,32.00
2018-12-14T19:48:08.549Z,51.07
2018-12-14T19:50:39.273Z,35.00
2018-12-14T19:53:06.717Z,36.67
2018-12-14T19:55:34.144Z,33.13
2018-12-14T19:58:03.079Z,34.80
2018-12-14T20:00:44.537Z,31.03
2018-12-14T20:03:12.748Z,30.70
2018-12-14T20:05:43.594Z,28.47
2018-12-14T20:08:11.298Z,31.47
2018-12-14T20:10:38.790Z,30.57
2018-12-14T20:13:10.169Z,26.93
2018-12-14T20:15:41.125Z,29.90
2018-12-14T20:18:08.538Z,28.87
2018-12-14T20:20:35.948Z,30.57
2018-12-14T20:23:03.823Z,31.73
2018-12-14T20:25:34.692Z,30.57
2018-12-14T20:28:06.091Z,30.20
2018-12-14T20:30:33.943Z,28.37
2018-12-14T20:33:05.500Z,27.53
2018-12-14T20:35:33.567Z,27.57
2018-12-14T20:38:04.647Z,29.83
2018-12-14T20:40:36.147Z,30.17
2018-12-14T20:43:05.317Z,31.97
2018-12-14T20:45:34.534Z,27.70
2018-12-14T20:48:05.767Z,29.00
2018-12-14T20:50:33.378Z,27.17
2018-12-14T20:53:06.165Z,27.53
2018-12-14T20:55:36.828Z,26.57
2018-12-14T20:58:07.723Z,28.27
2018-12-14T21:00:38.524Z,26.40
2018-12-14T21:03:07.677Z,27.73
2018-12-14T21:05:36.567Z,27.67
2018-12-14T21:08:04.032Z,26.20
2018-12-14T21:10:31.556Z,26.90
2018-12-14T21:12:58.969Z,25.67
2018-12-14T21:15:32.052Z,27.23
2018-12-14T21:18:00.064Z,26.57
2018-12-14T21:20:27.757Z,27.33
2018-12-14T21:22:57.035Z,24.30
2018-12-14T21:25:25.024Z,25.33
2018-12-14T21:27:54.534Z,30.57
2018-12-14T21:30:28.348Z,25.20
2018-12-14T21:32:55.932Z,25.87
2018-12-14T21:35:23.603Z,26.30
2018-12-14T21:37:55.788Z,24.50
2018-12-14T21:40:26.449Z,23.37
2018-12-14T21:42:57.599Z,27.70
2018-12-14T21:45:25.081Z,24.60
2018-12-14T21:47:52.622Z,25.03
2018-12-14T21:50:23.740Z,25.03
2018-12-14T21:52:51.883Z,28.07
2018-12-14T21:55:19.910Z,28.73
2018-12-14T21:57:47.448Z,25.47
2018-12-14T22:00:20.745Z,24.73
2018-12-14T22:02:48.498Z,23.30
2018-12-14T22:05:17.511Z,25.57
2018-12-14T22:07:48.900Z,29.07
2018-12-14T22:10:16.469Z,25.60
2018-12-14T22:12:44.209Z,25.17
2018-12-14T22:15:11.879Z,27.10
2018-12-14T22:17:41.290Z,24.87
2018-12-14T22:20:12.453Z,24.10
2018-12-14T22:22:40.122Z,27.43
2018-12-14T22:25:08.087Z,29.23
2018-12-14T22:27:39.219Z,28.17
2018-12-14T22:30:08.627Z,29.03
2018-12-14T22:32:36.377Z,24.97
2018-12-14T22:35:04.455Z,28.07
2018-12-14T22:37:35.647Z,27.87
2018-12-14T22:40:03.785Z,27.43
2018-12-14T22:42:31.479Z,26.30
2018-12-14T22:45:01.229Z,27.20
2018-12-14T22:47:31.822Z,27.33
2018-12-14T22:50:05.364Z,26.87
2018-12-14T22:52:36.013Z,28.97
2018-12-14T22:55:04.067Z,24.70
2018-12-14T22:57:35.105Z,26.67
2018-12-14T23:00:03.763Z,28.80
2018-12-14T23:02:35.032Z,27.10
2018-12-14T23:05:05.838Z,26.10
2018-12-14T23:07:37.104Z,26.30
2018-12-14T23:10:10.193Z,26.10
2018-12-14T23:12:41.982Z,26.30
2018-12-14T23:15:09.477Z,27.60
2018-12-14T23:17:37.190Z,23.07
2018-12-14T23:20:06.266Z,29.43
2018-12-14T23:22:33.605Z,24.37
2018-12-14T23:25:01.037Z,31.07
2018-12-14T23:27:32.933Z,30.37
2018-12-14T23:30:00.634Z,25.07
2018-12-14T23:32:28.083Z,25.70
2018-12-14T23:34:59.099Z,26.50
2018-12-14T23:37:28.466Z,26.37
2018-12-14T23:39:59.357Z,26.33
2018-12-14T23:42:26.767Z,28.50
2018-12-14T23:44:59.852Z,24.93
2018-12-14T23:47:28.620Z,29.17
2018-12-14T23:49:56.008Z,26.20
2018-12-14T23:52:23.499Z,27.63
2018-12-14T23:54:50.864Z,25.70
2018-12-14T23:57:25.467Z,27.73
2018-12-14T23:59:59.122Z,26.13
